createdAt,value
2019-05-12T00:00:18.390Z,26.50
2019-05-12T00:02:52.252Z,26.30
2019-05-12T00:05:27.749Z,26.20
2019-05-12T00:08:00.470Z,26.30
2019-05-12T00:10:33.732Z,26.10
2019-05-12T00:13:08.406Z,26.10
2019-05-12T00:15:42.485Z,26.00
2019-05-12T00:18:18.080Z,25.80
2019-05-12T00:20:51.303Z,25.70
2019-05-12T00:23:28.075Z,25.60
2019-05-12T00:25:59.492Z,25.40
2019-05-12T00:28:33.253Z,24.70
2019-05-12T00:31:08.368Z,24.60
2019-05-12T00:33:42.414Z,24.80
2019-05-12T00:36:18.578Z,24.90
2019-05-12T00:38:51.467Z,24.40
2019-05-12T00:41:25.254Z,24.50
2019-05-12T00:43:59.490Z,24.70
2019-05-12T00:46:33.359Z,24.70
2019-05-12T00:49:08.197Z,25.00
2019-05-12T00:51:41.565Z,25.00
2019-05-12T00:54:14.435Z,24.80
2019-05-12T00:56:48.158Z,24.50
2019-05-12T00:59:20.945Z,24.60
2019-05-12T01:01:54.330Z,24.80
2019-05-12T01:04:29.136Z,25.00
2019-05-12T01:07:03.155Z,25.10
2019-05-12T01:09:38.423Z,25.30
2019-05-12T01:12:12.540Z,25.20
2019-05-12T01:14:47.826Z,25.20
2019-05-12T01:17:21.700Z,25.10
2019-05-12T01:19:54.952Z,25.10
2019-05-12T01:22:28.754Z,25.20
2019-05-12T01:25:02.543Z,25.20
2019-05-12T01:27:37.877Z,24.60
2019-05-12T01:30:10.864Z,24.60
2019-05-12T01:32:43.759Z,24.70
2019-05-12T01:35:18.515Z,24.40
2019-05-12T01:37:52.870Z,24.10
2019-05-12T01:40:28.534Z,24.10
2019-05-12T01:43:01.773Z,24.10
2019-05-12T01:45:34.923Z,24.20
2019-05-12T01:48:09.167Z,24.10
2019-05-12T01:50:42.675Z,24.00
2019-05-12T01:53:15.144Z,24.20
2019-05-12T01:55:48.683Z,24.20
2019-05-12T01:58:22.040Z,23.90
2019-05-12T02:00:58.693Z,24.00
2019-05-12T02:03:31.579Z,24.20
2019-05-12T02:06:05.308Z,24.20
2019-05-12T02:08:47.594Z,24.30
2019-05-12T02:11:37.829Z,24.10
2019-05-12T02:14:10.898Z,24.10
2019-05-12T02:16:45.092Z,24.00
2019-05-12T02:19:18.741Z,24.10
2019-05-12T02:21:53.025Z,24.20
2019-05-12T02:24:30.463Z,24.20
2019-05-12T02:27:02.586Z,23.90
2019-05-12T02:29:38.361Z,23.70
2019-05-12T02:32:12.843Z,23.80
2019-05-12T02:34:47.597Z,23.60
2019-05-12T02:37:21.808Z,23.70
2019-05-12T02:39:55.796Z,23.80
2019-05-12T02:42:29.239Z,23.80
2019-05-12T02:45:05.562Z,23.60
2019-05-12T02:47:38.087Z,23.70
2019-05-12T02:50:14.507Z,23.90
2019-05-12T02:52:48.171Z,24.00
2019-05-12T02:55:25.632Z,24.10
2019-05-12T02:57:59.661Z,24.00
2019-05-12T03:00:36.690Z,23.80
2019-05-12T03:03:14.651Z,23.90
2019-05-12T03:05:54.740Z,23.80
2019-05-12T03:08:28.683Z,23.90
2019-05-12T03:11:05.963Z,23.80
2019-05-12T03:13:38.224Z,23.30
2019-05-12T03:16:14.692Z,23.00
2019-05-12T03:18:46.098Z,23.00
2019-05-12T03:21:19.470Z,23.00
2019-05-12T03:23:55.150Z,22.90
2019-05-12T03:26:28.709Z,22.90
2019-05-12T03:29:05.627Z,23.10
2019-05-12T03:31:40.992Z,23.30
2019-05-12T03:34:18.571Z,23.50
2019-05-12T03:36:51.337Z,23.60
2019-05-12T03:39:24.980Z,23.50
2019-05-12T03:41:58.419Z,23.70
2019-05-12T03:44:35.032Z,23.60
2019-05-12T03:47:06.810Z,23.60
2019-05-12T03:49:40.145Z,23.40
2019-05-12T03:52:15.246Z,23.30
2019-05-12T03:54:48.384Z,23.20
2019-05-12T03:57:21.625Z,23.40
2019-05-12T03:59:54.883Z,23.50
2019-05-12T04:02:28.626Z,23.60
2019-05-12T04:05:05.249Z,23.50
2019-05-12T04:07:38.297Z,23.30
2019-05-12T04:10:11.169Z,23.50
2019-05-12T04:12:44.957Z,23.70
2019-05-12T04:15:18.919Z,23.80
2019-05-12T04:17:54.329Z,23.30
2019-05-12T04:20:28.889Z,23.30
2019-05-12T04:23:06.014Z,23.50
2019-05-12T04:25:50.872Z,23.70
2019-05-12T04:28:15.027Z,23.60
2019-05-12T04:30:48.721Z,22.80
2019-05-12T04:33:25.441Z,22.10
2019-05-12T04:35:57.913Z,22.10
2019-05-12T04:38:30.346Z,22.10
2019-05-12T04:41:05.932Z,21.70
2019-05-12T04:43:38.592Z,21.30
2019-05-12T04:46:14.541Z,20.70
2019-05-12T04:48:48.330Z,20.80
2019-05-12T04:51:21.661Z,20.90
2019-05-12T04:53:55.111Z,20.50
2019-05-12T04:56:29.248Z,20.30
2019-05-12T04:59:05.021Z,20.00
2019-05-12T05:01:37.878Z,19.90
2019-05-12T05:04:11.695Z,20.10
2019-05-12T05:06:45.634Z,20.60
2019-05-12T05:09:19.912Z,20.90
2019-05-12T05:11:54.291Z,21.60
2019-05-12T05:14:27.903Z,21.70
2019-05-12T05:17:05.095Z,21.00
2019-05-12T05:19:36.786Z,20.20
2019-05-12T05:22:10.463Z,19.50
2019-05-12T05:24:44.375Z,19.40
2019-05-12T05:27:18.339Z,19.60
2019-05-12T05:29:54.354Z,20.00
2019-05-12T05:32:27.659Z,20.10
2019-05-12T05:35:03.353Z,20.60
2019-05-12T05:37:41.363Z,20.80
2019-05-12T05:40:14.083Z,20.40
2019-05-12T05:42:47.458Z,20.40
2019-05-12T05:45:24.155Z,20.10
2019-05-12T05:47:59.620Z,20.60
2019-05-12T05:50:30.992Z,21.50
2019-05-12T05:53:04.294Z,21.90
2019-05-12T05:55:37.781Z,21.90
2019-05-12T05:58:11.556Z,21.90
2019-05-12T06:00:45.299Z,22.00
2019-05-12T06:03:23.413Z,22.20
2019-05-12T06:05:53.517Z,22.80
2019-05-12T06:08:26.610Z,23.30
2019-05-12T06:11:00.479Z,23.20
2019-05-12T06:13:34.519Z,23.00
2019-05-12T06:16:13.753Z,23.00
2019-05-12T06:18:43.952Z,23.20
2019-05-12T06:21:18.570Z,23.50
2019-05-12T06:23:53.937Z,23.40
2019-05-12T06:26:32.488Z,22.90
2019-05-12T06:29:01.321Z,23.00
2019-05-12T06:31:36.021Z,23.30
2019-05-12T06:34:15.211Z,23.60
2019-05-12T06:36:45.584Z,23.20
2019-05-12T06:39:20.623Z,22.20
2019-05-12T06:41:56.704Z,20.80
2019-05-12T06:44:28.546Z,20.20
2019-05-12T06:47:06.899Z,19.80
2019-05-12T06:49:37.274Z,20.20
2019-05-12T06:52:10.503Z,20.20
2019-05-12T06:54:51.179Z,19.80
2019-05-12T06:57:25.080Z,19.90
2019-05-12T06:59:55.172Z,19.90
2019-05-12T07:02:30.280Z,19.80
2019-05-12T07:05:04.608Z,19.70
2019-05-12T07:07:42.197Z,19.80
2019-05-12T07:10:35.147Z,19.50
2019-05-12T07:12:59.029Z,18.90
2019-05-12T07:15:24.116Z,19.00
2019-05-12T07:18:04.246Z,18.70
2019-05-12T07:20:38.979Z,19.10
2019-05-12T07:23:14.216Z,18.60
2019-05-12T07:25:47.559Z,18.90
2019-05-12T07:28:23.550Z,18.50
2019-05-12T07:30:57.260Z,18.10
2019-05-12T07:33:35.170Z,18.20
2019-05-12T07:36:08.429Z,18.10
2019-05-12T07:38:43.995Z,18.00
2019-05-12T07:41:19.518Z,18.50
2019-05-12T07:43:56.776Z,18.50
2019-05-12T07:46:29.204Z,18.80
2019-05-12T07:49:03.918Z,19.60
2019-05-12T07:51:40.509Z,19.20
2019-05-12T07:54:14.305Z,19.60
2019-05-12T07:56:48.226Z,19.90
2019-05-12T07:59:21.077Z,20.40
2019-05-12T08:01:54.996Z,20.20
2019-05-12T08:04:31.685Z,20.20
2019-05-12T08:07:04.164Z,20.00
2019-05-12T08:09:38.538Z,19.20
2019-05-12T08:12:16.313Z,18.10
2019-05-12T08:14:45.765Z,17.90
2019-05-12T08:17:19.636Z,17.60
2019-05-12T08:19:53.610Z,17.20
2019-05-12T08:22:29.340Z,16.60
2019-05-12T08:25:01.248Z,16.20
2019-05-12T08:27:39.142Z,16.40
2019-05-12T08:30:10.269Z,16.40
2019-05-12T08:32:44.254Z,16.00
2019-05-12T08:35:25.569Z,16.70
2019-05-12T08:37:54.436Z,16.90
2019-05-12T08:40:27.185Z,16.80
2019-05-12T08:43:08.071Z,17.20
2019-05-12T08:45:37.347Z,16.70
2019-05-12T08:48:16.041Z,16.30
2019-05-12T08:50:45.986Z,16.90
2019-05-12T08:53:20.698Z,16.90
2019-05-12T08:55:53.897Z,16.70
2019-05-12T08:58:33.626Z,17.40
2019-05-12T09:01:04.402Z,18.30
2019-05-12T09:03:38.360Z,17.70
2019-05-12T09:06:15.491Z,17.40
2019-05-12T09:08:49.194Z,17.20
2019-05-12T09:11:21.262Z,17.30
2019-05-12T09:14:00.658Z,17.40
2019-05-12T09:16:29.523Z,17.40
2019-05-12T09:19:04.936Z,17.90
2019-05-12T09:21:38.705Z,17.50
2019-05-12T09:24:14.958Z,16.70
2019-05-12T09:26:47.413Z,16.00
2019-05-12T09:29:21.020Z,15.90
2019-05-12T09:31:59.252Z,15.70
2019-05-12T09:34:29.438Z,15.80
2019-05-12T09:37:06.142Z,15.70
2019-05-12T09:39:47.288Z,15.80
2019-05-12T09:42:19.341Z,15.90
2019-05-12T09:44:50.567Z,16.30
2019-05-12T09:47:27.575Z,16.20
2019-05-12T09:50:00.787Z,17.20
2019-05-12T09:52:33.928Z,17.00
2019-05-12T09:55:06.991Z,16.60
2019-05-12T09:57:42.963Z,16.20
2019-05-12T10:00:18.267Z,16.00
2019-05-12T10:02:59.368Z,16.90
2019-05-12T10:05:30.401Z,17.10
2019-05-12T10:08:04.499Z,17.10
2019-05-12T10:10:41.465Z,17.80
2019-05-12T10:13:15.190Z,18.90
2019-05-12T10:15:48.885Z,19.60
2019-05-12T10:18:24.359Z,20.20
2019-05-12T10:20:56.708Z,19.40
2019-05-12T10:23:30.586Z,19.00
2019-05-12T10:26:09.431Z,18.70
2019-05-12T10:28:43.728Z,18.70
2019-05-12T10:31:18.749Z,18.70
2019-05-12T10:33:57.154Z,18.80
2019-05-12T10:36:30.298Z,18.80
2019-05-12T10:39:04.260Z,18.50
2019-05-12T10:41:38.348Z,18.30
2019-05-12T10:44:10.385Z,18.70
2019-05-12T10:46:44.569Z,18.50
2019-05-12T10:49:19.220Z,18.60
2019-05-12T10:51:53.996Z,18.60
2019-05-12T10:54:26.562Z,18.50
2019-05-12T10:56:58.941Z,18.60
2019-05-12T10:59:38.266Z,18.20
2019-05-12T11:02:13.814Z,18.40
2019-05-12T11:04:46.293Z,18.30
2019-05-12T11:07:22.911Z,18.40
2019-05-12T11:09:54.431Z,18.40
2019-05-12T11:12:29.217Z,18.30
2019-05-12T11:15:06.789Z,18.50
2019-05-12T11:17:53.560Z,18.70
2019-05-12T11:20:27.024Z,18.50
2019-05-12T11:22:59.331Z,18.20
2019-05-12T11:25:34.013Z,18.40
2019-05-12T11:28:06.317Z,18.50
2019-05-12T11:30:39.591Z,17.90
2019-05-12T11:33:13.290Z,17.70
2019-05-12T11:35:47.088Z,17.80
2019-05-12T11:38:20.016Z,18.50
2019-05-12T11:40:53.817Z,18.40
2019-05-12T11:43:29.570Z,18.50
2019-05-12T11:46:01.818Z,18.50
2019-05-12T11:48:35.241Z,18.80
2019-05-12T11:51:08.672Z,18.70
2019-05-12T11:53:41.639Z,19.20
2019-05-12T11:56:14.822Z,19.60
2019-05-12T11:58:51.516Z,19.30
2019-05-12T12:01:24.651Z,18.50
2019-05-12T12:03:57.498Z,18.10
2019-05-12T12:06:30.385Z,18.00
2019-05-12T12:09:09.265Z,17.70
2019-05-12T12:11:43.224Z,17.50
2019-05-12T12:14:16.453Z,17.30
2019-05-12T12:16:50.315Z,17.50
2019-05-12T12:19:33.568Z,17.80
2019-05-12T12:21:59.807Z,17.70
2019-05-12T12:24:33.622Z,17.60
2019-05-12T12:27:06.939Z,17.40
2019-05-12T12:29:40.208Z,17.70
2019-05-12T12:32:18.536Z,17.60
2019-05-12T12:34:47.712Z,17.70
2019-05-12T12:37:24.443Z,17.00
2019-05-12T12:39:58.193Z,16.90
2019-05-12T12:42:35.409Z,17.30
2019-05-12T12:45:18.784Z,17.30
2019-05-12T12:47:53.931Z,17.30
2019-05-12T12:50:30.362Z,17.60
2019-05-12T12:53:00.497Z,17.30
2019-05-12T12:55:32.932Z,17.00
2019-05-12T12:58:05.407Z,16.90
2019-05-12T13:00:47.123Z,16.70
2019-05-12T13:03:14.390Z,16.40
2019-05-12T13:05:46.769Z,16.50
2019-05-12T13:08:21.593Z,16.90
2019-05-12T13:10:54.195Z,17.10
2019-05-12T13:13:28.521Z,17.30
2019-05-12T13:16:01.016Z,17.00
2019-05-12T13:18:36.352Z,17.00
2019-05-12T13:21:09.255Z,16.90
2019-05-12T13:23:42.284Z,16.70
2019-05-12T13:26:15.229Z,16.70
2019-05-12T13:28:53.152Z,16.80
2019-05-12T13:31:24.347Z,16.80
2019-05-12T13:33:57.464Z,16.80
2019-05-12T13:36:37.376Z,17.00
2019-05-12T13:39:11.545Z,17.00
2019-05-12T13:41:45.262Z,16.50
2019-05-12T13:44:17.885Z,16.50
2019-05-12T13:46:54.706Z,16.40
2019-05-12T13:49:30.008Z,16.60
2019-05-12T13:52:04.103Z,16.60
2019-05-12T13:54:37.398Z,16.50
2019-05-12T13:57:13.420Z,16.60
2019-05-12T13:59:47.997Z,16.70
2019-05-12T14:02:23.457Z,16.70
2019-05-12T14:05:00.463Z,16.70
2019-05-12T14:07:34.427Z,16.40
2019-05-12T14:10:06.661Z,16.60
2019-05-12T14:12:39.556Z,16.30
2019-05-12T14:15:14.174Z,15.90
2019-05-12T14:17:48.144Z,15.80
2019-05-12T14:20:20.848Z,16.30
2019-05-12T14:22:54.231Z,16.40
2019-05-12T14:25:30.757Z,16.40
2019-05-12T14:28:05.580Z,16.20
2019-05-12T14:30:41.281Z,16.20
2019-05-12T14:33:10.699Z,15.80
2019-05-12T14:35:46.018Z,15.60
2019-05-12T14:38:19.230Z,15.20
2019-05-12T14:40:53.642Z,15.50
2019-05-12T14:43:26.415Z,15.50
2019-05-12T14:46:04.939Z,15.60
2019-05-12T14:48:34.292Z,15.50
2019-05-12T14:51:07.515Z,15.40
2019-05-12T14:53:40.550Z,15.30
2019-05-12T14:56:14.101Z,15.50
2019-05-12T14:58:50.224Z,15.50
2019-05-12T15:01:23.692Z,15.60
2019-05-12T15:03:55.795Z,15.30
2019-05-12T15:06:29.573Z,15.20
2019-05-12T15:09:04.474Z,15.40
2019-05-12T15:11:36.484Z,15.10
2019-05-12T15:14:09.904Z,15.00
2019-05-12T15:16:44.714Z,14.90
2019-05-12T15:19:20.920Z,15.20
2019-05-12T15:21:53.617Z,15.60
2019-05-12T15:24:26.576Z,15.60
2019-05-12T15:27:00.815Z,15.40
2019-05-12T15:29:33.888Z,15.50
2019-05-12T15:32:06.123Z,15.40
2019-05-12T15:34:39.203Z,15.10
2019-05-12T15:37:12.872Z,15.10
2019-05-12T15:39:46.024Z,15.20
2019-05-12T15:42:19.004Z,15.30
2019-05-12T15:44:53.618Z,15.50
2019-05-12T15:47:29.577Z,15.20
2019-05-12T15:50:00.756Z,15.30
2019-05-12T15:52:38.330Z,15.30
2019-05-12T15:55:07.914Z,15.40
2019-05-12T15:57:40.032Z,15.40
2019-05-12T16:00:16.952Z,15.30
2019-05-12T16:02:48.864Z,15.70
2019-05-12T16:05:28.795Z,16.20
2019-05-12T16:07:57.510Z,15.90
2019-05-12T16:10:29.956Z,16.20
2019-05-12T16:13:02.291Z,16.10
2019-05-12T16:15:36.527Z,16.10
2019-05-12T16:18:10.213Z,16.00
2019-05-12T16:20:44.152Z,16.10
2019-05-12T16:23:24.960Z,16.20
2019-05-12T16:25:53.972Z,16.40
2019-05-12T16:28:26.670Z,16.50
2019-05-12T16:31:06.717Z,16.60
2019-05-12T16:33:36.030Z,16.90
2019-05-12T16:36:11.463Z,17.10
2019-05-12T16:38:44.533Z,17.20
2019-05-12T16:41:19.845Z,17.00
2019-05-12T16:43:53.746Z,16.80
2019-05-12T16:46:26.957Z,16.60
2019-05-12T16:49:00.308Z,16.40
2019-05-12T16:51:35.241Z,16.60
2019-05-12T16:54:08.313Z,16.70
2019-05-12T16:56:43.231Z,17.00
2019-05-12T16:59:21.691Z,17.20
2019-05-12T17:01:50.680Z,17.30
2019-05-12T17:04:23.930Z,17.40
2019-05-12T17:06:56.464Z,17.80
2019-05-12T17:09:28.936Z,17.80
2019-05-12T17:12:01.769Z,18.00
2019-05-12T17:14:36.617Z,18.10
2019-05-12T17:17:10.888Z,18.30
2019-05-12T17:19:44.379Z,18.50
2019-05-12T17:22:18.648Z,18.40
2019-05-12T17:24:53.785Z,18.50
2019-05-12T17:27:28.202Z,18.00
2019-05-12T17:30:04.318Z,17.60
2019-05-12T17:32:36.604Z,17.30
2019-05-12T17:35:10.863Z,17.30
2019-05-12T17:37:43.337Z,17.20
2019-05-12T17:40:19.978Z,17.00
2019-05-12T17:42:49.847Z,17.20
2019-05-12T17:45:23.572Z,17.00
2019-05-12T17:48:03.001Z,16.80
2019-05-12T17:50:31.431Z,17.30
2019-05-12T17:53:04.460Z,17.30
2019-05-12T17:55:42.698Z,17.30
2019-05-12T17:58:13.780Z,17.70
2019-05-12T18:00:51.522Z,17.40
2019-05-12T18:03:23.002Z,17.60
2019-05-12T18:05:54.692Z,17.90
2019-05-12T18:08:32.505Z,17.70
2019-05-12T18:11:03.695Z,17.90
2019-05-12T18:13:39.962Z,17.90
2019-05-12T18:16:20.754Z,17.90
2019-05-12T18:18:46.818Z,17.70
2019-05-12T18:21:22.406Z,17.90
2019-05-12T18:23:54.773Z,17.90
2019-05-12T18:26:27.650Z,18.30
2019-05-12T18:29:00.115Z,18.20
2019-05-12T18:31:33.452Z,18.10
2019-05-12T18:34:07.498Z,18.00
2019-05-12T18:36:40.420Z,17.80
2019-05-12T18:39:15.221Z,17.70
2019-05-12T18:41:48.081Z,17.70
2019-05-12T18:44:26.273Z,17.80
2019-05-12T18:46:56.242Z,17.60
2019-05-12T18:49:29.251Z,17.60
2019-05-12T18:52:03.891Z,17.30
2019-05-12T18:54:35.457Z,17.40
2019-05-12T18:57:08.312Z,17.30
2019-05-12T18:59:46.087Z,17.60
2019-05-12T19:02:22.816Z,17.60
2019-05-12T19:04:49.495Z,17.60
2019-05-12T19:07:35.893Z,17.90
2019-05-12T19:09:58.058Z,18.00
2019-05-12T19:12:35.220Z,17.80
2019-05-12T19:15:10.128Z,18.20
2019-05-12T19:17:43.564Z,18.20
2019-05-12T19:20:15.911Z,17.90
2019-05-12T19:22:57.332Z,17.90
2019-05-12T19:25:23.822Z,17.70
2019-05-12T19:28:06.074Z,17.50
2019-05-12T19:30:31.481Z,17.40
2019-05-12T19:33:06.532Z,17.60
2019-05-12T19:35:38.685Z,17.70
2019-05-12T19:38:15.029Z,18.20
2019-05-12T19:40:54.954Z,18.40
2019-05-12T19:43:23.717Z,18.50
2019-05-12T19:46:02.938Z,18.40
2019-05-12T19:48:35.151Z,18.40
2019-05-12T19:51:20.351Z,18.40
2019-05-12T19:53:39.453Z,18.60
2019-05-12T19:56:14.115Z,18.70
2019-05-12T19:58:47.142Z,18.50
2019-05-12T20:01:26.141Z,18.70
2019-05-12T20:03:57.994Z,18.80
2019-05-12T20:06:30.407Z,18.50
2019-05-12T20:09:08.232Z,18.40
2019-05-12T20:11:38.721Z,18.60
2019-05-12T20:14:19.058Z,18.80
2019-05-12T20:16:46.728Z,18.80
2019-05-12T20:19:25.516Z,19.10
2019-05-12T20:21:55.834Z,18.90
2019-05-12T20:24:29.794Z,18.70
2019-05-12T20:27:04.141Z,17.90
2019-05-12T20:29:38.019Z,17.80
2019-05-12T20:32:13.940Z,17.60
2019-05-12T20:34:52.084Z,17.80
2019-05-12T20:37:22.959Z,18.10
2019-05-12T20:40:02.129Z,18.30
2019-05-12T20:42:41.943Z,18.50
2019-05-12T20:45:08.436Z,18.40
2019-05-12T20:47:44.952Z,18.20
2019-05-12T20:50:17.626Z,18.20
2019-05-12T20:52:57.674Z,18.20
2019-05-12T20:55:25.075Z,18.10
2019-05-12T20:57:59.528Z,18.40
2019-05-12T21:00:39.022Z,18.30
2019-05-12T21:03:13.837Z,18.40
2019-05-12T21:05:50.537Z,18.30
2019-05-12T21:08:27.299Z,18.30
2019-05-12T21:11:01.128Z,17.90
2019-05-12T21:13:34.624Z,17.80
2019-05-12T21:16:16.431Z,18.00
2019-05-12T21:18:49.849Z,18.10
2019-05-12T21:21:27.612Z,18.10
2019-05-12T21:23:59.181Z,18.30
2019-05-12T21:26:48.480Z,18.00
2019-05-12T21:29:25.446Z,18.10
2019-05-12T21:32:02.909Z,18.10
2019-05-12T21:34:34.516Z,18.20
2019-05-12T21:37:07.492Z,18.30
2019-05-12T21:39:45.643Z,18.10
2019-05-12T21:42:15.403Z,18.30
2019-05-12T21:44:49.031Z,18.30
2019-05-12T21:47:24.297Z,17.90
2019-05-12T21:49:58.104Z,17.90
2019-05-12T21:52:39.032Z,17.80
2019-05-12T21:55:15.355Z,17.60
2019-05-12T21:57:44.099Z,17.70
2019-05-12T22:00:27.599Z,17.50
2019-05-12T22:03:02.606Z,17.40
2019-05-12T22:05:50.573Z,17.60
2019-05-12T22:08:17.576Z,17.80
2019-05-12T22:10:46.747Z,17.50
2019-05-12T22:13:21.020Z,17.20
2019-05-12T22:15:57.130Z,17.40
2019-05-12T22:18:30.105Z,17.30
2019-05-12T22:21:06.802Z,17.30
2019-05-12T22:23:42.970Z,17.70
2019-05-12T22:26:14.288Z,17.70
2019-05-12T22:28:50.922Z,17.80
2019-05-12T22:31:24.247Z,17.80
2019-05-12T22:33:58.380Z,17.60
2019-05-12T22:36:33.624Z,17.60
2019-05-12T22:39:09.249Z,18.10
2019-05-12T22:41:43.430Z,18.40
2019-05-12T22:44:20.904Z,18.40
2019-05-12T22:46:50.951Z,18.40
2019-05-12T22:49:25.374Z,18.30
2019-05-12T22:52:02.702Z,18.20
2019-05-12T22:54:34.680Z,18.00
2019-05-12T22:57:08.643Z,18.00
2019-05-12T22:59:44.835Z,17.90
2019-05-12T23:02:28.044Z,17.50
2019-05-12T23:04:55.000Z,17.40
2019-05-12T23:07:29.933Z,17.70
2019-05-12T23:10:06.939Z,17.70
2019-05-12T23:12:39.755Z,18.00
2019-05-12T23:15:14.073Z,18.20
2019-05-12T23:17:49.350Z,18.40
2019-05-12T23:20:25.521Z,18.70
2019-05-12T23:22:59.695Z,18.60
2019-05-12T23:25:33.777Z,18.20
2019-05-12T23:28:10.400Z,17.90
2019-05-12T23:30:48.471Z,17.40
2019-05-12T23:33:17.888Z,17.20
2019-05-12T23:35:53.558Z,17.20
2019-05-12T23:38:25.786Z,17.30
2019-05-12T23:40:59.162Z,17.10
2019-05-12T23:43:34.139Z,17.20
2019-05-12T23:46:08.171Z,17.20
2019-05-12T23:48:43.955Z,17.30
2019-05-12T23:51:17.529Z,17.30
2019-05-12T23:53:50.335Z,17.20
2019-05-12T23:56:23.590Z,17.10
2019-05-12T23:58:57.424Z,17.20
